createdAt,value
2019-05-15T00:02:27.920Z,85.10
2019-05-15T00:04:58.659Z,84.90
2019-05-15T00:07:30.857Z,84.70
2019-05-15T00:10:04.483Z,84.70
2019-05-15T00:12:34.651Z,84.80
2019-05-15T00:15:08.898Z,84.60
2019-05-15T00:17:39.369Z,84.80
2019-05-15T00:20:10.591Z,84.60
2019-05-15T00:22:44.345Z,84.40
2019-05-15T00:25:15.840Z,84.50
2019-05-15T00:27:52.283Z,84.40
2019-05-15T00:30:29.001Z,84.40
2019-05-15T00:33:01.251Z,84.40
2019-05-15T00:35:32.043Z,84.40
2019-05-15T00:38:02.931Z,84.40
2019-05-15T00:40:33.831Z,84.30
2019-05-15T00:43:04.749Z,84.30
2019-05-15T00:45:35.696Z,84.40
2019-05-15T00:48:08.819Z,84.30
2019-05-15T00:50:40.720Z,84.00
2019-05-15T00:53:12.275Z,84.00
2019-05-15T00:55:43.399Z,83.90
2019-05-15T00:58:14.509Z,83.90
2019-05-15T01:00:48.518Z,83.60
2019-05-15T01:03:19.092Z,83.50
2019-05-15T01:05:51.242Z,83.50
2019-05-15T01:08:22.083Z,83.30
2019-05-15T01:10:52.932Z,83.00
2019-05-15T01:13:23.895Z,83.00
2019-05-15T01:15:54.876Z,83.00
2019-05-15T01:18:25.878Z,83.00
2019-05-15T01:20:58.651Z,83.10
2019-05-15T01:23:29.184Z,83.10
2019-05-15T01:26:04.936Z,82.70
2019-05-15T01:28:38.162Z,82.70
2019-05-15T01:31:08.703Z,82.40
2019-05-15T01:33:39.888Z,82.40
2019-05-15T01:36:11.594Z,81.80
2019-05-15T01:38:42.416Z,81.50
2019-05-15T01:41:13.358Z,81.30
2019-05-15T01:43:44.230Z,81.20
2019-05-15T01:46:15.037Z,81.10
2019-05-15T01:48:45.824Z,81.00
2019-05-15T01:51:18.363Z,80.70
2019-05-15T01:53:49.184Z,80.70
2019-05-15T01:56:20.240Z,80.70
2019-05-15T01:58:51.078Z,80.70
2019-05-15T02:01:22.026Z,80.50
2019-05-15T02:03:52.910Z,80.40
2019-05-15T02:06:23.827Z,80.20
2019-05-15T02:08:54.653Z,79.90
2019-05-15T02:11:25.645Z,80.00
2019-05-15T02:13:58.554Z,79.70
2019-05-15T02:16:28.923Z,79.30
2019-05-15T02:19:00.049Z,79.10
2019-05-15T02:21:30.952Z,78.20
2019-05-15T02:24:02.733Z,78.20
2019-05-15T02:26:33.758Z,77.30
2019-05-15T02:29:04.702Z,76.20
2019-05-15T02:31:38.850Z,76.30
2019-05-15T02:34:10.170Z,75.70
2019-05-15T02:36:40.337Z,75.00
2019-05-15T02:39:11.967Z,74.80
2019-05-15T02:41:42.780Z,74.60
2019-05-15T02:44:13.726Z,74.60
2019-05-15T02:46:44.571Z,75.30
2019-05-15T02:49:15.585Z,74.90
2019-05-15T02:51:49.283Z,75.00
2019-05-15T02:54:19.682Z,74.50
2019-05-15T02:56:50.608Z,74.70
2019-05-15T02:59:21.757Z,74.70
2019-05-15T03:01:52.677Z,74.20
2019-05-15T03:04:23.566Z,74.40
2019-05-15T03:06:54.480Z,74.10
2019-05-15T03:09:25.528Z,74.40
2019-05-15T03:11:59.539Z,74.60
2019-05-15T03:14:30.606Z,74.60
2019-05-15T03:17:01.565Z,74.80
2019-05-15T03:19:33.330Z,74.70
2019-05-15T03:22:04.182Z,74.50
2019-05-15T03:24:39.419Z,74.70
2019-05-15T03:27:09.556Z,73.90
2019-05-15T03:29:40.851Z,73.20
2019-05-15T03:32:25.085Z,73.50
2019-05-15T03:34:47.861Z,73.20
2019-05-15T03:37:21.468Z,73.20
2019-05-15T03:39:51.850Z,73.40
2019-05-15T03:42:21.152Z,73.30
2019-05-15T03:44:52.875Z,72.90
2019-05-15T03:47:25.040Z,72.90
2019-05-15T03:49:55.952Z,72.30
2019-05-15T03:52:29.376Z,72.00
2019-05-15T03:55:02.183Z,72.20
2019-05-15T03:57:33.041Z,71.60
2019-05-15T04:00:04.104Z,71.90
2019-05-15T04:02:35.489Z,72.00
2019-05-15T04:05:11.215Z,71.40
2019-05-15T04:07:40.477Z,71.70
2019-05-15T04:10:11.979Z,72.60
2019-05-15T04:12:42.978Z,72.00
2019-05-15T04:15:15.000Z,72.00
2019-05-15T04:17:49.003Z,71.70
2019-05-15T04:20:23.079Z,71.50
2019-05-15T04:22:54.088Z,70.80
2019-05-15T04:25:29.483Z,71.20
2019-05-15T04:28:01.408Z,70.50
2019-05-15T04:30:35.071Z,69.30
2019-05-15T04:33:19.889Z,69.10
2019-05-15T04:35:45.011Z,69.40
2019-05-15T04:38:15.780Z,68.60
2019-05-15T04:40:49.853Z,68.10
2019-05-15T04:43:19.455Z,66.20
2019-05-15T04:45:50.403Z,65.30
2019-05-15T04:48:21.395Z,65.00
2019-05-15T04:50:52.937Z,62.20
2019-05-15T04:53:24.876Z,61.50
2019-05-15T04:55:55.780Z,62.00
2019-05-15T04:58:29.561Z,62.00
2019-05-15T05:01:00.207Z,62.20
2019-05-15T05:03:34.396Z,63.40
2019-05-15T05:06:03.773Z,61.90
2019-05-15T05:08:34.497Z,60.20
2019-05-15T05:11:24.665Z,60.30
2019-05-15T05:13:55.645Z,59.70
2019-05-15T05:16:29.351Z,58.80
2019-05-15T05:19:00.956Z,58.90
2019-05-15T05:21:32.288Z,58.70
2019-05-15T05:24:03.061Z,58.50
2019-05-15T05:26:38.042Z,58.70
2019-05-15T05:29:08.488Z,58.40
2019-05-15T05:31:40.177Z,57.60
2019-05-15T05:34:11.409Z,58.70
2019-05-15T05:36:42.220Z,58.00
2019-05-15T05:39:15.302Z,58.50
2019-05-15T05:41:45.704Z,58.00
2019-05-15T05:44:18.729Z,56.70
2019-05-15T05:46:49.110Z,56.80
2019-05-15T05:49:20.169Z,56.60
2019-05-15T05:51:50.968Z,56.20
2019-05-15T05:54:22.467Z,55.70
2019-05-15T05:56:53.315Z,56.40
2019-05-15T05:59:24.394Z,56.50
2019-05-15T06:01:55.301Z,56.70
2019-05-15T06:04:27.891Z,56.40
2019-05-15T06:07:07.132Z,56.30
2019-05-15T06:09:31.594Z,56.40
2019-05-15T06:12:02.684Z,56.00
2019-05-15T06:14:33.971Z,56.80
2019-05-15T06:17:05.005Z,56.90
2019-05-15T06:19:38.373Z,57.00
2019-05-15T06:22:08.791Z,56.40
2019-05-15T06:24:40.136Z,57.20
2019-05-15T06:27:10.995Z,57.20
2019-05-15T06:29:42.198Z,57.00
2019-05-15T06:32:13.182Z,57.50
2019-05-15T06:34:44.067Z,57.60
2019-05-15T06:37:14.963Z,58.30
2019-05-15T06:39:45.604Z,57.70
2019-05-15T06:42:18.609Z,57.50
2019-05-15T06:44:48.805Z,57.10
2019-05-15T06:47:19.827Z,56.40
2019-05-15T06:49:50.786Z,56.50
2019-05-15T06:52:21.675Z,56.50
2019-05-15T06:54:52.666Z,56.30
2019-05-15T06:57:23.366Z,56.00
2019-05-15T06:59:57.953Z,55.20
2019-05-15T07:02:28.940Z,55.60
2019-05-15T07:05:00.089Z,55.70
2019-05-15T07:07:31.075Z,55.20
2019-05-15T07:10:01.968Z,55.20
2019-05-15T07:12:32.863Z,56.20
2019-05-15T07:15:03.628Z,56.00
2019-05-15T07:17:34.554Z,56.40
2019-05-15T07:20:08.603Z,56.30
2019-05-15T07:22:39.351Z,56.20
2019-05-15T07:25:11.314Z,56.00
2019-05-15T07:27:42.253Z,54.00
2019-05-15T07:30:14.312Z,53.80
2019-05-15T07:32:45.196Z,53.70
2019-05-15T07:35:19.117Z,53.60
2019-05-15T07:37:50.182Z,54.20
2019-05-15T07:40:21.596Z,54.90
2019-05-15T07:42:52.573Z,54.90
2019-05-15T07:45:23.758Z,55.50
2019-05-15T07:47:54.756Z,56.00
2019-05-15T07:50:27.105Z,56.20
2019-05-15T07:52:59.005Z,55.90
2019-05-15T07:55:30.130Z,56.60
2019-05-15T07:58:00.998Z,57.80
2019-05-15T08:00:32.414Z,58.70
2019-05-15T08:03:03.418Z,59.00
2019-05-15T08:05:34.296Z,59.80
2019-05-15T08:08:05.267Z,60.30
2019-05-15T08:10:36.211Z,60.80
2019-05-15T08:13:08.870Z,61.00
2019-05-15T08:15:39.429Z,61.80
2019-05-15T08:18:12.893Z,62.20
2019-05-15T08:20:42.606Z,62.20
2019-05-15T08:23:13.615Z,62.30
2019-05-15T08:25:44.644Z,62.70
2019-05-15T08:28:15.605Z,63.40
2019-05-15T08:30:48.964Z,64.10
2019-05-15T08:33:19.647Z,64.30
2019-05-15T08:35:51.787Z,64.40
2019-05-15T08:38:22.882Z,64.40
2019-05-15T08:40:53.840Z,64.30
2019-05-15T08:43:28.393Z,64.40
2019-05-15T08:45:58.626Z,65.00
2019-05-15T08:48:32.313Z,65.10
2019-05-15T08:51:02.303Z,64.90
2019-05-15T08:53:33.275Z,65.70
2019-05-15T08:56:04.458Z,65.80
2019-05-15T08:58:37.983Z,65.70
2019-05-15T09:01:09.853Z,66.00
2019-05-15T09:03:40.261Z,65.70
2019-05-15T09:06:12.341Z,65.60
2019-05-15T09:08:43.275Z,66.10
2019-05-15T09:11:14.235Z,66.40
2019-05-15T09:13:45.298Z,66.40
2019-05-15T09:16:18.350Z,67.20
2019-05-15T09:18:48.961Z,67.30
2019-05-15T09:21:19.976Z,67.80
2019-05-15T09:23:50.801Z,68.40
2019-05-15T09:26:21.769Z,68.80
2019-05-15T09:28:53.676Z,68.20
2019-05-15T09:31:24.982Z,67.70
2019-05-15T09:33:58.576Z,67.10
2019-05-15T09:36:29.969Z,66.80
2019-05-15T09:39:01.071Z,66.20
2019-05-15T09:41:31.784Z,65.80
2019-05-15T09:44:02.842Z,65.80
2019-05-15T09:46:33.895Z,66.10
2019-05-15T09:49:04.889Z,66.30
2019-05-15T09:51:38.324Z,66.20
2019-05-15T09:54:08.290Z,66.30
2019-05-15T09:56:39.200Z,65.90
2019-05-15T09:59:10.527Z,65.40
2019-05-15T10:01:41.320Z,64.90
2019-05-15T10:04:12.239Z,65.30
2019-05-15T10:06:43.229Z,65.10
2019-05-15T10:09:14.352Z,66.40
2019-05-15T10:11:45.205Z,65.90
2019-05-15T10:14:16.133Z,66.00
2019-05-15T10:16:48.608Z,66.20
2019-05-15T10:19:19.333Z,66.30
2019-05-15T10:21:52.913Z,66.00
2019-05-15T10:24:22.689Z,66.00
2019-05-15T10:26:53.675Z,66.20
2019-05-15T10:29:24.478Z,66.30
2019-05-15T10:31:55.345Z,66.50
2019-05-15T10:34:26.258Z,66.60
2019-05-15T10:36:59.136Z,66.70
2019-05-15T10:39:30.238Z,66.70
2019-05-15T10:42:01.354Z,66.80
2019-05-15T10:44:32.108Z,66.60
2019-05-15T10:47:03.001Z,66.60
2019-05-15T10:49:33.846Z,66.60
2019-05-15T10:52:04.661Z,66.60
2019-05-15T10:54:37.981Z,66.60
2019-05-15T10:57:08.630Z,66.50
2019-05-15T10:59:39.629Z,66.60
2019-05-15T11:02:11.533Z,66.70
2019-05-15T11:04:42.451Z,66.90
2019-05-15T11:07:13.476Z,66.90
2019-05-15T11:09:44.436Z,66.80
2019-05-15T11:12:15.476Z,66.90
2019-05-15T11:14:46.401Z,67.00
2019-05-15T11:17:17.414Z,67.00
2019-05-15T11:19:49.834Z,66.80
2019-05-15T11:22:20.793Z,66.70
2019-05-15T11:24:53.102Z,66.60
2019-05-15T11:27:24.443Z,66.50
2019-05-15T11:29:55.233Z,66.40
2019-05-15T11:32:29.188Z,66.50
2019-05-15T11:34:58.795Z,66.30
2019-05-15T11:37:29.747Z,66.30
2019-05-15T11:40:00.712Z,66.30
2019-05-15T11:42:31.725Z,66.20
2019-05-15T11:45:02.810Z,66.10
2019-05-15T11:47:33.579Z,65.90
2019-05-15T11:50:04.504Z,66.20
2019-05-15T11:52:37.349Z,66.20
2019-05-15T11:55:09.200Z,66.50
2019-05-15T11:57:47.020Z,66.60
2019-05-15T12:00:17.336Z,66.80
2019-05-15T12:02:46.222Z,67.10
2019-05-15T12:05:18.287Z,67.40
2019-05-15T12:07:50.127Z,67.80
2019-05-15T12:10:25.936Z,68.00
2019-05-15T12:12:56.904Z,68.60
2019-05-15T12:15:27.947Z,68.90
2019-05-15T12:17:59.169Z,69.00
2019-05-15T12:20:30.081Z,69.00
2019-05-15T12:23:00.952Z,69.50
2019-05-15T12:25:32.084Z,69.90
2019-05-15T12:28:02.960Z,69.90
2019-05-15T12:30:34.033Z,70.20
2019-05-15T12:33:04.959Z,70.60
2019-05-15T12:35:39.201Z,70.60
2019-05-15T13:00:58.811Z,72.20
2019-05-15T13:03:29.858Z,72.10
2019-05-15T13:06:00.738Z,72.10
2019-05-15T13:08:31.438Z,72.50
2019-05-15T13:11:02.481Z,72.70
2019-05-15T13:13:33.465Z,73.00
2019-05-15T13:16:04.469Z,72.90
2019-05-15T13:18:35.298Z,73.10
2019-05-15T13:21:06.044Z,73.70
2019-05-15T13:23:38.587Z,74.00
2019-05-15T13:26:23.035Z,73.60
2019-05-15T13:28:41.404Z,74.10
2019-05-15T13:31:12.147Z,74.10
2019-05-15T13:33:43.180Z,74.10
2019-05-15T13:36:14.087Z,74.20
2019-05-15T13:38:44.968Z,74.30
2019-05-15T13:41:18.717Z,74.20
2019-05-15T13:43:49.211Z,74.10
2019-05-15T13:46:20.842Z,73.90
2019-05-15T13:48:52.097Z,73.80
2019-05-15T13:51:22.998Z,73.50
2019-05-15T13:53:54.051Z,73.30
2019-05-15T13:56:25.025Z,72.90
2019-05-15T13:58:55.778Z,72.70
2019-05-15T14:01:28.657Z,72.70
2019-05-15T14:03:59.019Z,72.80
2019-05-15T14:06:30.052Z,72.30
2019-05-15T14:09:00.921Z,72.20
2019-05-15T14:11:31.765Z,72.10
2019-05-15T14:14:02.918Z,71.80
2019-05-15T14:16:33.929Z,71.80
2019-05-15T14:19:04.641Z,71.90
2019-05-15T14:21:37.775Z,72.00
2019-05-15T14:24:09.032Z,72.10
2019-05-15T14:26:40.369Z,72.30
2019-05-15T14:29:11.251Z,72.20
2019-05-15T14:31:42.285Z,72.30
2019-05-15T14:34:13.274Z,72.40
2019-05-15T14:36:44.182Z,72.50
2019-05-15T14:39:15.285Z,72.80
2019-05-15T14:41:49.027Z,72.90
2019-05-15T14:44:21.585Z,73.30
2019-05-15T14:46:51.285Z,73.40
2019-05-15T14:49:22.301Z,73.80
2019-05-15T14:52:05.785Z,73.70
2019-05-15T14:54:25.585Z,73.70
2019-05-15T14:56:58.098Z,74.00
2019-05-15T14:59:29.226Z,74.10
2019-05-15T15:02:00.257Z,74.10
2019-05-15T15:04:31.235Z,74.30
2019-05-15T15:07:02.422Z,74.50
2019-05-15T15:09:33.375Z,74.60
2019-05-15T15:12:04.317Z,74.70
2019-05-15T15:14:37.785Z,75.20
2019-05-15T15:17:07.347Z,75.40
2019-05-15T15:19:42.494Z,75.80
2019-05-15T15:22:13.292Z,76.00
2019-05-15T15:24:51.063Z,76.60
2019-05-15T15:27:28.936Z,76.60
2019-05-15T15:29:59.392Z,76.70
2019-05-15T15:32:30.494Z,77.00
2019-05-15T15:35:02.934Z,77.10
2019-05-15T15:37:33.652Z,77.30
2019-05-15T15:40:04.732Z,77.00
2019-05-15T15:42:35.810Z,77.50
2019-05-15T15:45:10.525Z,77.60
2019-05-15T15:47:41.405Z,77.80
2019-05-15T15:50:13.792Z,77.90
2019-05-15T15:52:44.837Z,77.80
2019-05-15T15:55:17.941Z,77.90
2019-05-15T15:57:48.800Z,78.10
2019-05-15T16:00:20.287Z,79.30
2019-05-15T16:02:51.485Z,79.50
2019-05-15T16:05:22.405Z,78.20
2019-05-15T16:07:53.446Z,78.60
2019-05-15T16:10:24.237Z,78.70
2019-05-15T16:12:55.317Z,78.60
2019-05-15T16:15:28.923Z,78.80
2019-05-15T16:17:59.904Z,78.60
2019-05-15T16:20:31.047Z,79.10
2019-05-15T16:23:02.210Z,79.50
2019-05-15T16:25:33.282Z,79.30
2019-05-15T16:28:04.580Z,79.50
2019-05-15T16:30:48.148Z,79.50
2019-05-15T16:33:09.682Z,79.70
2019-05-15T16:35:40.728Z,79.70
2019-05-15T16:38:11.701Z,80.00
2019-05-15T16:40:42.520Z,80.30
2019-05-15T16:43:13.732Z,80.30
2019-05-15T16:45:44.505Z,80.40
2019-05-15T16:48:15.469Z,80.10
2019-05-15T16:50:48.554Z,80.40
2019-05-15T16:53:18.479Z,80.10
2019-05-15T16:55:50.604Z,80.50
2019-05-15T16:58:21.393Z,80.30
2019-05-15T17:00:52.365Z,80.20
2019-05-15T17:03:23.231Z,80.30
2019-05-15T17:05:54.180Z,80.50
2019-05-15T17:08:25.006Z,80.70
2019-05-15T17:10:58.280Z,80.60
2019-05-15T17:13:28.883Z,81.10
2019-05-15T17:16:00.214Z,80.70
2019-05-15T17:18:31.964Z,80.80
2019-05-15T17:21:02.939Z,80.70
2019-05-15T17:23:33.813Z,80.80
2019-05-15T17:26:04.915Z,80.70
2019-05-15T17:28:38.139Z,81.00
2019-05-15T17:31:09.226Z,81.00
2019-05-15T17:33:40.282Z,81.10
2019-05-15T17:36:11.176Z,81.00
2019-05-15T17:38:43.191Z,80.80
2019-05-15T17:41:14.101Z,80.90
2019-05-15T17:43:45.101Z,80.80
2019-05-15T17:46:16.080Z,80.70
2019-05-15T17:48:54.121Z,80.50
2019-05-15T17:51:20.787Z,80.60
2019-05-15T17:53:51.528Z,80.60
2019-05-15T17:56:22.461Z,80.60
2019-05-15T17:58:58.112Z,80.40
2019-05-15T18:01:28.227Z,80.40
2019-05-15T18:03:59.523Z,80.50
2019-05-15T18:06:30.554Z,80.70
2019-05-15T18:09:01.426Z,80.50
2019-05-15T18:11:32.636Z,80.50
2019-05-15T18:14:03.990Z,80.50
2019-05-15T18:16:35.193Z,80.80
2019-05-15T18:19:08.121Z,80.70
2019-05-15T18:21:38.992Z,80.60
2019-05-15T18:24:10.075Z,80.70
2019-05-15T18:26:41.095Z,80.70
2019-05-15T18:29:12.195Z,80.80
2019-05-15T18:31:43.729Z,81.00
2019-05-15T18:34:14.639Z,81.50
2019-05-15T18:36:45.596Z,81.40
2019-05-15T18:39:16.600Z,81.60
2019-05-15T18:41:48.462Z,81.50
2019-05-15T18:44:19.745Z,81.60
2019-05-15T18:46:50.645Z,81.30
2019-05-15T18:49:21.666Z,81.40
2019-05-15T18:51:52.824Z,81.40
2019-05-15T18:54:23.772Z,81.00
2019-05-15T18:56:54.747Z,81.10
2019-05-15T18:59:25.599Z,81.20
2019-05-15T19:01:58.517Z,81.40
2019-05-15T19:04:28.867Z,81.50
2019-05-15T19:06:59.727Z,81.30
2019-05-15T19:09:30.534Z,81.50
2019-05-15T19:12:01.410Z,81.30
2019-05-15T19:14:32.383Z,81.40
2019-05-15T19:17:03.039Z,81.20
2019-05-15T19:19:34.029Z,81.30
2019-05-15T19:22:05.087Z,81.10
2019-05-15T19:24:39.897Z,81.30
2019-05-15T19:27:08.109Z,81.00
2019-05-15T19:29:39.187Z,81.00
2019-05-15T19:32:11.135Z,81.00
2019-05-15T19:34:42.427Z,81.00
2019-05-15T19:37:13.127Z,80.60
2019-05-15T19:39:44.093Z,80.60
2019-05-15T19:42:15.024Z,80.60
2019-05-15T19:44:48.318Z,80.50
2019-05-15T19:47:18.568Z,80.30
2019-05-15T19:49:49.936Z,80.20
2019-05-15T19:52:21.118Z,80.10
2019-05-15T19:54:52.151Z,80.10
2019-05-15T19:57:23.316Z,80.10
2019-05-15T19:59:54.450Z,80.00
2019-05-15T20:02:25.223Z,80.00
2019-05-15T20:04:58.186Z,79.90
2019-05-15T20:07:28.814Z,79.90
2019-05-15T20:09:59.756Z,80.00
2019-05-15T20:12:30.635Z,79.90
2019-05-15T20:15:01.433Z,80.00
2019-05-15T20:17:32.471Z,80.00
2019-05-15T20:20:03.391Z,80.00
2019-05-15T20:22:36.668Z,79.80
2019-05-15T20:25:08.423Z,79.70
2019-05-15T20:27:39.447Z,79.80
2019-05-15T20:30:11.902Z,79.80
2019-05-15T20:32:43.111Z,80.00
2019-05-15T20:35:14.253Z,80.00
2019-05-15T20:37:45.201Z,79.90
2019-05-15T20:40:18.098Z,79.90
2019-05-15T20:42:48.606Z,79.80
2019-05-15T20:45:19.773Z,80.30
2019-05-15T20:47:51.609Z,80.30
2019-05-15T20:50:22.431Z,80.70
2019-05-15T20:52:53.276Z,80.50
2019-05-15T20:55:24.192Z,80.60
2019-05-15T20:57:55.398Z,80.50
2019-05-15T21:00:26.241Z,80.80
2019-05-15T21:02:57.845Z,80.80
2019-05-15T21:05:29.088Z,81.10
2019-05-15T21:08:00.339Z,81.10
2019-05-15T21:10:31.099Z,81.20
2019-05-15T21:13:02.004Z,81.40
2019-05-15T21:15:33.123Z,81.70
2019-05-15T21:18:13.682Z,81.60
2019-05-15T21:20:37.816Z,81.80
2019-05-15T21:23:09.080Z,81.90
2019-05-15T21:25:40.148Z,82.00
2019-05-15T21:28:11.858Z,82.10
2019-05-15T21:30:44.810Z,82.30
2019-05-15T21:33:17.639Z,82.40
2019-05-15T21:35:48.073Z,82.50
2019-05-15T21:38:21.305Z,82.40
2019-05-15T21:40:51.352Z,82.60
2019-05-15T21:43:23.374Z,82.80
2019-05-15T21:45:54.832Z,82.70
2019-05-15T21:48:25.654Z,82.60
2019-05-15T21:50:56.834Z,82.50
2019-05-15T21:53:28.702Z,82.70
2019-05-15T21:55:59.687Z,82.90
2019-05-15T21:58:30.838Z,82.80
2019-05-15T22:01:02.274Z,82.80
2019-05-15T22:03:33.061Z,83.00
2019-05-15T22:06:04.379Z,83.20
2019-05-15T22:08:35.124Z,83.30
2019-05-15T22:11:06.019Z,83.40
2019-05-15T22:13:39.087Z,83.60
2019-05-15T22:16:09.418Z,83.60
2019-05-15T22:18:40.498Z,83.90
2019-05-15T22:21:11.383Z,83.80
2019-05-15T22:23:42.132Z,83.70
2019-05-15T22:26:13.134Z,83.90
2019-05-15T22:28:44.157Z,83.90
2019-05-15T22:31:15.083Z,83.80
2019-05-15T22:33:47.806Z,84.10
2019-05-15T22:36:18.819Z,83.80
2019-05-15T22:38:59.376Z,83.90
2019-05-15T22:41:30.325Z,84.00
2019-05-15T22:44:02.351Z,84.10
2019-05-15T22:46:33.577Z,84.00
2019-05-15T22:49:04.515Z,84.10
2019-05-15T22:51:38.079Z,84.10
2019-05-15T22:54:08.678Z,84.10
2019-05-15T22:56:39.520Z,84.10
2019-05-15T22:59:10.445Z,84.40
2019-05-15T23:01:41.669Z,84.30
2019-05-15T23:04:12.647Z,84.10
2019-05-15T23:06:43.432Z,84.20
2019-05-15T23:09:14.538Z,84.50
2019-05-15T23:11:45.255Z,84.40
2019-05-15T23:14:17.988Z,84.20
2019-05-15T23:16:49.701Z,84.20
2019-05-15T23:19:23.626Z,84.70
2019-05-15T23:21:59.055Z,84.40
2019-05-15T23:24:30.837Z,84.30
2019-05-15T23:27:01.787Z,84.40
2019-05-15T23:29:33.282Z,84.10
2019-05-15T23:32:04.477Z,84.40
2019-05-15T23:34:35.609Z,84.70
2019-05-15T23:37:08.191Z,84.60
2019-05-15T23:39:39.053Z,84.60
2019-05-15T23:42:10.212Z,84.70
2019-05-15T23:44:41.285Z,84.90
2019-05-15T23:47:12.230Z,85.00
2019-05-15T23:49:43.627Z,85.00
2019-05-15T23:52:14.730Z,85.00
2019-05-15T23:54:45.451Z,84.50
2019-05-15T23:57:17.930Z,84.50
2019-05-15T23:59:49.016Z,84.80
